sensor_id;sensor_type;location;lat;lon;timestamp;P1;durP1;ratioP1;P2;durP2;ratioP2
46222;SDS011;31943;51.410;7.564;2024-03-07T00:00:24;28.33;;;20.60;;
46222;SDS011;31943;51.410;7.564;2024-03-07T00:02:50;32.47;;;21.05;;
46222;SDS011;31943;51.410;7.564;2024-03-07T00:05:18;39.72;;;23.30;;
46222;SDS011;31943;51.410;7.564;2024-03-07T00:07:44;38.40;;;22.60;;
46222;SDS011;31943;51.410;7.564;2024-03-07T00:10:12;48.20;;;26.67;;
46222;SDS011;31943;51.410;7.564;2024-03-07T00:12:39;82.75;;;31.08;;
46222;SDS011;31943;51.410;7.564;2024-03-07T00:15:05;71.18;;;33.42;;
46222;SDS011;31943;51.410;7.564;2024-03-07T00:17:33;87.00;;;33.88;;
46222;SDS011;31943;51.410;7.564;2024-03-07T00:19:58;50.60;;;30.40;;
46222;SDS011;31943;51.410;7.564;2024-03-07T00:22:25;83.95;;;32.42;;
46222;SDS011;31943;51.410;7.564;2024-03-07T00:24:52;148.90;;;32.95;;
46222;SDS011;31943;51.410;7.564;2024-03-07T00:27:18;101.10;;;32.95;;
46222;SDS011;31943;51.410;7.564;2024-03-07T00:29:43;102.43;;;36.25;;
46222;SDS011;31943;51.410;7.564;2024-03-07T00:32:09;154.05;;;36.95;;
46222;SDS011;31943;51.410;7.564;2024-03-07T00:34:35;138.95;;;31.58;;
46222;SDS011;31943;51.410;7.564;2024-03-07T00:37:03;97.20;;;31.52;;
46222;SDS011;31943;51.410;7.564;2024-03-07T00:39:30;48.53;;;29.83;;
46222;SDS011;31943;51.410;7.564;2024-03-07T00:41:56;79.47;;;30.75;;
46222;SDS011;31943;51.410;7.564;2024-03-07T00:44:22;157.68;;;32.85;;
46222;SDS011;31943;51.410;7.564;2024-03-07T00:46:48;124.18;;;33.88;;
46222;SDS011;31943;51.410;7.564;2024-03-07T00:49:14;55.25;;;28.83;;
46222;SDS011;31943;51.410;7.564;2024-03-07T00:51:39;72.55;;;29.23;;
46222;SDS011;31943;51.410;7.564;2024-03-07T00:54:06;67.85;;;27.13;;
46222;SDS011;31943;51.410;7.564;2024-03-07T00:56:33;131.55;;;30.70;;
46222;SDS011;31943;51.410;7.564;2024-03-07T00:58:59;180.77;;;32.80;;
46222;SDS011;31943;51.410;7.564;2024-03-07T01:01:25;56.70;;;27.58;;
46222;SDS011;31943;51.410;7.564;2024-03-07T01:03:50;95.95;;;31.23;;
46222;SDS011;31943;51.410;7.564;2024-03-07T01:06:16;119.93;;;31.95;;
46222;SDS011;31943;51.410;7.564;2024-03-07T01:08:41;138.13;;;31.45;;
46222;SDS011;31943;51.410;7.564;2024-03-07T01:11:07;116.80;;;29.45;;
46222;SDS011;31943;51.410;7.564;2024-03-07T01:13:34;107.13;;;29.27;;
46222;SDS011;31943;51.410;7.564;2024-03-07T01:15:59;112.53;;;29.73;;
46222;SDS011;31943;51.410;7.564;2024-03-07T01:18:25;145.88;;;30.55;;
46222;SDS011;31943;51.410;7.564;2024-03-07T01:20:50;136.40;;;27.98;;
46222;SDS011;31943;51.410;7.564;2024-03-07T01:23:16;184.55;;;32.47;;
46222;SDS011;31943;51.410;7.564;2024-03-07T01:25:41;101.82;;;29.35;;
46222;SDS011;31943;51.410;7.564;2024-03-07T01:28:08;238.68;;;31.63;;
46222;SDS011;31943;51.410;7.564;2024-03-07T01:30:37;136.18;;;28.38;;
46222;SDS011;31943;51.410;7.564;2024-03-07T01:33:03;86.18;;;26.00;;
46222;SDS011;31943;51.410;7.564;2024-03-07T01:35:30;178.35;;;28.70;;
46222;SDS011;31943;51.410;7.564;2024-03-07T01:37:55;101.25;;;25.38;;
46222;SDS011;31943;51.410;7.564;2024-03-07T01:40:21;185.38;;;28.98;;
46222;SDS011;31943;51.410;7.564;2024-03-07T01:42:46;76.22;;;25.33;;
46222;SDS011;31943;51.410;7.564;2024-03-07T01:45:13;50.33;;;23.27;;
46222;SDS011;31943;51.410;7.564;2024-03-07T01:47:41;47.80;;;23.35;;
46222;SDS011;31943;51.410;7.564;2024-03-07T01:50:07;74.18;;;24.17;;
46222;SDS011;31943;51.410;7.564;2024-03-07T01:52:33;56.28;;;23.10;;
46222;SDS011;31943;51.410;7.564;2024-03-07T01:54:58;30.60;;;21.92;;
46222;SDS011;31943;51.410;7.564;2024-03-07T01:57:25;61.67;;;23.73;;
46222;SDS011;31943;51.410;7.564;2024-03-07T01:59:50;71.90;;;23.27;;
46222;SDS011;31943;51.410;7.564;2024-03-07T02:02:17;100.47;;;25.65;;
46222;SDS011;31943;51.410;7.564;2024-03-07T02:04:44;38.03;;;23.35;;
46222;SDS011;31943;51.410;7.564;2024-03-07T02:07:09;45.45;;;23.85;;
46222;SDS011;31943;51.410;7.564;2024-03-07T02:09:35;68.43;;;22.92;;
46222;SDS011;31943;51.410;7.564;2024-03-07T02:12:00;46.80;;;21.50;;
46222;SDS011;31943;51.410;7.564;2024-03-07T02:14:26;38.08;;;21.45;;
46222;SDS011;31943;51.410;7.564;2024-03-07T02:16:53;92.10;;;23.40;;
46222;SDS011;31943;51.410;7.564;2024-03-07T02:19:18;55.42;;;21.95;;
46222;SDS011;31943;51.410;7.564;2024-03-07T02:21:46;123.15;;;24.42;;
46222;SDS011;31943;51.410;7.564;2024-03-07T02:24:11;64.32;;;21.52;;
46222;SDS011;31943;51.410;7.564;2024-03-07T02:26:37;54.90;;;21.42;;
46222;SDS011;31943;51.410;7.564;2024-03-07T02:29:02;30.63;;;20.98;;
46222;SDS011;31943;51.410;7.564;2024-03-07T02:31:28;29.13;;;19.63;;
46222;SDS011;31943;51.410;7.564;2024-03-07T02:33:53;23.10;;;19.60;;
46222;SDS011;31943;51.410;7.564;2024-03-07T02:36:19;29.92;;;19.13;;
46222;SDS011;31943;51.410;7.564;2024-03-07T02:38:46;76.13;;;22.33;;
46222;SDS011;31943;51.410;7.564;2024-03-07T02:41:12;40.92;;;21.42;;
46222;SDS011;31943;51.410;7.564;2024-03-07T02:43:37;35.28;;;21.17;;
46222;SDS011;31943;51.410;7.564;2024-03-07T02:46:03;38.10;;;20.60;;
46222;SDS011;31943;51.410;7.564;2024-03-07T02:48:28;39.10;;;20.23;;
46222;SDS011;31943;51.410;7.564;2024-03-07T02:50:54;24.85;;;18.70;;
46222;SDS011;31943;51.410;7.564;2024-03-07T02:53:19;54.45;;;20.50;;
46222;SDS011;31943;51.410;7.564;2024-03-07T02:55:46;26.60;;;18.63;;
46222;SDS011;31943;51.410;7.564;2024-03-07T02:58:12;35.50;;;19.23;;
46222;SDS011;31943;51.410;7.564;2024-03-07T03:00:38;26.98;;;18.88;;
46222;SDS011;31943;51.410;7.564;2024-03-07T03:03:03;40.63;;;20.92;;
46222;SDS011;31943;51.410;7.564;2024-03-07T03:05:29;31.90;;;19.77;;
46222;SDS011;31943;51.410;7.564;2024-03-07T03:07:55;44.03;;;20.25;;
46222;SDS011;31943;51.410;7.564;2024-03-07T03:10:21;68.32;;;20.73;;
46222;SDS011;31943;51.410;7.564;2024-03-07T03:12:49;32.45;;;18.42;;
46222;SDS011;31943;51.410;7.564;2024-03-07T03:15:14;76.50;;;18.77;;
46222;SDS011;31943;51.410;7.564;2024-03-07T03:17:40;52.30;;;18.63;;
46222;SDS011;31943;51.410;7.564;2024-03-07T03:20:06;166.48;;;22.27;;
46222;SDS011;31943;51.410;7.564;2024-03-07T03:22:32;84.13;;;18.88;;
46222;SDS011;31943;51.410;7.564;2024-03-07T03:24:58;37.63;;;18.00;;
46222;SDS011;31943;51.410;7.564;2024-03-07T03:27:23;108.80;;;20.48;;
46222;SDS011;31943;51.410;7.564;2024-03-07T03:29:50;49.42;;;17.90;;
46222;SDS011;31943;51.410;7.564;2024-03-07T03:32:16;88.57;;;19.58;;
46222;SDS011;31943;51.410;7.564;2024-03-07T03:34:43;58.47;;;18.35;;
46222;SDS011;31943;51.410;7.564;2024-03-07T03:37:08;71.72;;;18.92;;
46222;SDS011;31943;51.410;7.564;2024-03-07T03:39:35;35.40;;;16.80;;
46222;SDS011;31943;51.410;7.564;2024-03-07T03:42:00;128.50;;;20.63;;
46222;SDS011;31943;51.410;7.564;2024-03-07T03:44:26;69.43;;;17.67;;
46222;SDS011;31943;51.410;7.564;2024-03-07T03:46:53;84.22;;;18.60;;
46222;SDS011;31943;51.410;7.564;2024-03-07T03:49:18;96.50;;;18.98;;
46222;SDS011;31943;51.410;7.564;2024-03-07T03:51:44;63.60;;;17.50;;
46222;SDS011;31943;51.410;7.564;2024-03-07T03:54:09;56.53;;;17.58;;
46222;SDS011;31943;51.410;7.564;2024-03-07T03:56:35;121.28;;;19.98;;
46222;SDS011;31943;51.410;7.564;2024-03-07T03:59:00;71.82;;;17.52;;
46222;SDS011;31943;51.410;7.564;2024-03-07T04:01:26;54.78;;;16.02;;
46222;SDS011;31943;51.410;7.564;2024-03-07T04:03:54;44.85;;;17.42;;
46222;SDS011;31943;51.410;7.564;2024-03-07T04:06:19;43.00;;;16.02;;
46222;SDS011;31943;51.410;7.564;2024-03-07T04:08:45;24.67;;;15.02;;
46222;SDS011;31943;51.410;7.564;2024-03-07T04:11:11;73.15;;;17.63;;
46222;SDS011;31943;51.410;7.564;2024-03-07T04:13:36;28.40;;;15.18;;
46222;SDS011;31943;51.410;7.564;2024-03-07T04:16:02;41.30;;;16.17;;
46222;SDS011;31943;51.410;7.564;2024-03-07T04:18:28;57.22;;;16.85;;
46222;SDS011;31943;51.410;7.564;2024-03-07T04:20:56;21.63;;;14.93;;
46222;SDS011;31943;51.410;7.564;2024-03-07T04:23:21;57.05;;;16.95;;
46222;SDS011;31943;51.410;7.564;2024-03-07T04:25:47;27.35;;;14.90;;
46222;SDS011;31943;51.410;7.564;2024-03-07T04:28:16;112.88;;;19.42;;
46222;SDS011;31943;51.410;7.564;2024-03-07T04:30:42;27.60;;;17.17;;
46222;SDS011;31943;51.410;7.564;2024-03-07T04:33:07;31.00;;;17.42;;
46222;SDS011;31943;51.410;7.564;2024-03-07T04:35:34;139.05;;;21.58;;
46222;SDS011;31943;51.410;7.564;2024-03-07T04:38:01;34.55;;;16.15;;
46222;SDS011;31943;51.410;7.564;2024-03-07T04:40:27;49.63;;;17.00;;
46222;SDS011;31943;51.410;7.564;2024-03-07T04:42:52;28.40;;;15.65;;
46222;SDS011;31943;51.410;7.564;2024-03-07T04:45:18;68.57;;;16.80;;
46222;SDS011;31943;51.410;7.564;2024-03-07T04:47:44;24.67;;;15.73;;
46222;SDS011;31943;51.410;7.564;2024-03-07T04:50:10;63.25;;;16.08;;
46222;SDS011;31943;51.410;7.564;2024-03-07T04:52:37;34.00;;;14.50;;
46222;SDS011;31943;51.410;7.564;2024-03-07T04:55:05;38.15;;;14.90;;
46222;SDS011;31943;51.410;7.564;2024-03-07T04:57:30;97.13;;;16.90;;
46222;SDS011;31943;51.410;7.564;2024-03-07T04:59:58;64.10;;;15.88;;
46222;SDS011;31943;51.410;7.564;2024-03-07T05:02:23;176.55;;;18.75;;
46222;SDS011;31943;51.410;7.564;2024-03-07T05:04:52;89.18;;;15.88;;
46222;SDS011;31943;51.410;7.564;2024-03-07T05:07:18;64.50;;;15.75;;
46222;SDS011;31943;51.410;7.564;2024-03-07T05:09:44;146.38;;;18.02;;
46222;SDS011;31943;51.410;7.564;2024-03-07T05:12:11;100.57;;;16.55;;
46222;SDS011;31943;51.410;7.564;2024-03-07T05:14:37;33.50;;;13.55;;
46222;SDS011;31943;51.410;7.564;2024-03-07T05:17:02;42.58;;;16.52;;
46222;SDS011;31943;51.410;7.564;2024-03-07T05:19:28;65.75;;;19.02;;
46222;SDS011;31943;51.410;7.564;2024-03-07T05:21:54;38.88;;;17.30;;
46222;SDS011;31943;51.410;7.564;2024-03-07T05:24:21;48.85;;;18.67;;
46222;SDS011;31943;51.410;7.564;2024-03-07T05:26:46;31.10;;;18.08;;
46222;SDS011;31943;51.410;7.564;2024-03-07T05:29:14;32.05;;;16.92;;
46222;SDS011;31943;51.410;7.564;2024-03-07T05:31:40;40.58;;;17.88;;
46222;SDS011;31943;51.410;7.564;2024-03-07T05:34:06;27.23;;;17.65;;
46222;SDS011;31943;51.410;7.564;2024-03-07T05:36:32;30.42;;;17.55;;
46222;SDS011;31943;51.410;7.564;2024-03-07T05:38:57;35.33;;;17.50;;
46222;SDS011;31943;51.410;7.564;2024-03-07T05:41:23;27.13;;;18.13;;
46222;SDS011;31943;51.410;7.564;2024-03-07T05:43:49;23.65;;;17.98;;
46222;SDS011;31943;51.410;7.564;2024-03-07T05:46:17;26.92;;;16.50;;
46222;SDS011;31943;51.410;7.564;2024-03-07T05:48:43;26.50;;;16.50;;
46222;SDS011;31943;51.410;7.564;2024-03-07T05:51:09;33.60;;;17.77;;
46222;SDS011;31943;51.410;7.564;2024-03-07T05:53:34;25.65;;;17.95;;
46222;SDS011;31943;51.410;7.564;2024-03-07T05:56:00;25.45;;;17.05;;
46222;SDS011;31943;51.410;7.564;2024-03-07T05:58:26;21.45;;;17.40;;
46222;SDS011;31943;51.410;7.564;2024-03-07T06:00:52;20.58;;;16.75;;
46222;SDS011;31943;51.410;7.564;2024-03-07T06:03:19;20.85;;;16.75;;
46222;SDS011;31943;51.410;7.564;2024-03-07T06:05:44;24.75;;;17.92;;
46222;SDS011;31943;51.410;7.564;2024-03-07T06:08:10;33.67;;;18.48;;
46222;SDS011;31943;51.410;7.564;2024-03-07T06:10:36;25.38;;;18.48;;
46222;SDS011;31943;51.410;7.564;2024-03-07T06:13:01;23.27;;;17.08;;
46222;SDS011;31943;51.410;7.564;2024-03-07T06:15:27;22.95;;;17.27;;
46222;SDS011;31943;51.410;7.564;2024-03-07T06:17:52;31.45;;;17.50;;
46222;SDS011;31943;51.410;7.564;2024-03-07T06:20:19;23.92;;;18.30;;
46222;SDS011;31943;51.410;7.564;2024-03-07T06:22:45;24.17;;;17.80;;
46222;SDS011;31943;51.410;7.564;2024-03-07T06:25:12;29.75;;;19.25;;
46222;SDS011;31943;51.410;7.564;2024-03-07T06:27:37;52.92;;;19.05;;
46222;SDS011;31943;51.410;7.564;2024-03-07T06:30:03;24.98;;;17.98;;
46222;SDS011;31943;51.410;7.564;2024-03-07T06:32:29;48.20;;;19.70;;
46222;SDS011;31943;51.410;7.564;2024-03-07T06:34:55;48.65;;;18.58;;
46222;SDS011;31943;51.410;7.564;2024-03-07T06:37:22;47.28;;;17.27;;
46222;SDS011;31943;51.410;7.564;2024-03-07T06:39:47;32.70;;;16.90;;
46222;SDS011;31943;51.410;7.564;2024-03-07T06:42:13;32.10;;;21.40;;
46222;SDS011;31943;51.410;7.564;2024-03-07T06:44:38;77.93;;;19.67;;
46222;SDS011;31943;51.410;7.564;2024-03-07T06:47:04;35.40;;;17.48;;
46222;SDS011;31943;51.410;7.564;2024-03-07T06:49:30;30.00;;;16.80;;
46222;SDS011;31943;51.410;7.564;2024-03-07T06:51:56;58.40;;;18.15;;
46222;SDS011;31943;51.410;7.564;2024-03-07T06:54:23;24.00;;;16.20;;
46222;SDS011;31943;51.410;7.564;2024-03-07T06:56:48;55.33;;;16.80;;
46222;SDS011;31943;51.410;7.564;2024-03-07T06:59:14;45.65;;;15.85;;
46222;SDS011;31943;51.410;7.564;2024-03-07T07:01:39;56.42;;;16.70;;
46222;SDS011;31943;51.410;7.564;2024-03-07T07:04:05;22.73;;;14.80;;
46222;SDS011;31943;51.410;7.564;2024-03-07T07:06:31;56.30;;;15.05;;
46222;SDS011;31943;51.410;7.564;2024-03-07T07:11:36;35.38;;;14.38;;
46222;SDS011;31943;51.410;7.564;2024-03-07T07:14:05;51.45;;;14.73;;
46222;SDS011;31943;51.410;7.564;2024-03-07T07:16:31;19.55;;;14.18;;
46222;SDS011;31943;51.410;7.564;2024-03-07T07:18:58;45.15;;;16.33;;
46222;SDS011;31943;51.410;7.564;2024-03-07T07:21:24;31.02;;;15.48;;
46222;SDS011;31943;51.410;7.564;2024-03-07T07:23:50;44.17;;;16.02;;
46222;SDS011;31943;51.410;7.564;2024-03-07T07:26:15;49.03;;;17.70;;
46222;SDS011;31943;51.410;7.564;2024-03-07T07:28:42;28.85;;;16.55;;
46222;SDS011;31943;51.410;7.564;2024-03-07T07:31:08;24.08;;;16.17;;
46222;SDS011;31943;51.410;7.564;2024-03-07T07:33:34;20.60;;;16.10;;
46222;SDS011;31943;51.410;7.564;2024-03-07T07:36:01;21.67;;;16.23;;
46222;SDS011;31943;51.410;7.564;2024-03-07T07:38:33;18.38;;;14.48;;
46222;SDS011;31943;51.410;7.564;2024-03-07T07:40:58;27.55;;;15.38;;
46222;SDS011;31943;51.410;7.564;2024-03-07T07:43:24;18.95;;;14.25;;
46222;SDS011;31943;51.410;7.564;2024-03-07T07:45:51;19.92;;;14.88;;
46222;SDS011;31943;51.410;7.564;2024-03-07T07:48:16;21.25;;;15.80;;
46222;SDS011;31943;51.410;7.564;2024-03-07T07:50:42;22.10;;;15.57;;
46222;SDS011;31943;51.410;7.564;2024-03-07T07:53:08;19.17;;;15.32;;
46222;SDS011;31943;51.410;7.564;2024-03-07T07:55:33;21.27;;;15.48;;
46222;SDS011;31943;51.410;7.564;2024-03-07T07:58:00;22.05;;;17.30;;
46222;SDS011;31943;51.410;7.564;2024-03-07T08:00:26;23.50;;;17.38;;
46222;SDS011;31943;51.410;7.564;2024-03-07T08:02:55;21.00;;;16.33;;
46222;SDS011;31943;51.410;7.564;2024-03-07T08:05:22;24.58;;;19.40;;
46222;SDS011;31943;51.410;7.564;2024-03-07T08:07:50;22.10;;;18.10;;
46222;SDS011;31943;51.410;7.564;2024-03-07T08:10:15;28.48;;;21.10;;
46222;SDS011;31943;51.410;7.564;2024-03-07T08:12:42;31.48;;;22.67;;
46222;SDS011;31943;51.410;7.564;2024-03-07T08:15:07;29.20;;;20.55;;
46222;SDS011;31943;51.410;7.564;2024-03-07T08:17:33;28.35;;;21.73;;
46222;SDS011;31943;51.410;7.564;2024-03-07T08:20:00;31.10;;;21.85;;
46222;SDS011;31943;51.410;7.564;2024-03-07T08:22:27;33.58;;;23.13;;
46222;SDS011;31943;51.410;7.564;2024-03-07T08:24:53;33.55;;;23.10;;
46222;SDS011;31943;51.410;7.564;2024-03-07T08:27:19;30.55;;;22.30;;
46222;SDS011;31943;51.410;7.564;2024-03-07T08:29:47;27.45;;;19.85;;
46222;SDS011;31943;51.410;7.564;2024-03-07T08:32:12;28.10;;;21.33;;
46222;SDS011;31943;51.410;7.564;2024-03-07T08:34:38;30.20;;;22.02;;
46222;SDS011;31943;51.410;7.564;2024-03-07T08:37:05;30.77;;;21.73;;
46222;SDS011;31943;51.410;7.564;2024-03-07T08:39:31;31.75;;;23.05;;
46222;SDS011;31943;51.410;7.564;2024-03-07T08:41:56;37.88;;;24.50;;
46222;SDS011;31943;51.410;7.564;2024-03-07T08:44:22;36.55;;;26.15;;
46222;SDS011;31943;51.410;7.564;2024-03-07T08:46:49;36.90;;;24.70;;
46222;SDS011;31943;51.410;7.564;2024-03-07T08:49:15;41.85;;;26.85;;
46222;SDS011;31943;51.410;7.564;2024-03-07T08:51:41;35.03;;;25.33;;
46222;SDS011;31943;51.410;7.564;2024-03-07T08:54:08;36.58;;;25.25;;
46222;SDS011;31943;51.410;7.564;2024-03-07T08:56:35;34.28;;;24.73;;
46222;SDS011;31943;51.410;7.564;2024-03-07T08:59:01;33.28;;;24.67;;
46222;SDS011;31943;51.410;7.564;2024-03-07T09:01:26;35.53;;;25.67;;
46222;SDS011;31943;51.410;7.564;2024-03-07T09:03:52;35.13;;;24.92;;
46222;SDS011;31943;51.410;7.564;2024-03-07T09:06:17;35.42;;;24.23;;
46222;SDS011;31943;51.410;7.564;2024-03-07T09:08:43;30.88;;;23.85;;
46222;SDS011;31943;51.410;7.564;2024-03-07T09:11:11;35.22;;;24.65;;
46222;SDS011;31943;51.410;7.564;2024-03-07T09:13:37;31.92;;;24.13;;
46222;SDS011;31943;51.410;7.564;2024-03-07T09:16:02;33.13;;;26.40;;
46222;SDS011;31943;51.410;7.564;2024-03-07T09:18:29;33.72;;;22.95;;
46222;SDS011;31943;51.410;7.564;2024-03-07T09:20:54;33.45;;;23.40;;
46222;SDS011;31943;51.410;7.564;2024-03-07T09:23:21;30.35;;;23.17;;
46222;SDS011;31943;51.410;7.564;2024-03-07T09:25:47;29.83;;;23.17;;
46222;SDS011;31943;51.410;7.564;2024-03-07T09:28:14;33.55;;;23.00;;
46222;SDS011;31943;51.410;7.564;2024-03-07T09:30:39;32.38;;;22.85;;
46222;SDS011;31943;51.410;7.564;2024-03-07T09:33:05;30.05;;;21.92;;
46222;SDS011;31943;51.410;7.564;2024-03-07T09:35:31;28.85;;;22.02;;
46222;SDS011;31943;51.410;7.564;2024-03-07T09:37:57;27.92;;;21.80;;
46222;SDS011;31943;51.410;7.564;2024-03-07T09:40:24;29.30;;;22.15;;
46222;SDS011;31943;51.410;7.564;2024-03-07T09:42:50;31.25;;;22.25;;
46222;SDS011;31943;51.410;7.564;2024-03-07T09:45:18;28.50;;;21.90;;
46222;SDS011;31943;51.410;7.564;2024-03-07T09:47:45;29.25;;;23.17;;
46222;SDS011;31943;51.410;7.564;2024-03-07T09:50:11;29.52;;;21.20;;
46222;SDS011;31943;51.410;7.564;2024-03-07T09:52:37;28.40;;;20.65;;
46222;SDS011;31943;51.410;7.564;2024-03-07T09:55:05;27.35;;;20.90;;
46222;SDS011;31943;51.410;7.564;2024-03-07T09:57:31;26.55;;;20.45;;
46222;SDS011;31943;51.410;7.564;2024-03-07T10:00:00;25.00;;;19.02;;
46222;SDS011;31943;51.410;7.564;2024-03-07T10:02:28;23.67;;;18.60;;
46222;SDS011;31943;51.410;7.564;2024-03-07T10:04:57;24.25;;;18.85;;
46222;SDS011;31943;51.410;7.564;2024-03-07T10:07:24;23.05;;;18.42;;
46222;SDS011;31943;51.410;7.564;2024-03-07T10:09:50;24.95;;;19.58;;
46222;SDS011;31943;51.410;7.564;2024-03-07T10:12:18;22.95;;;18.30;;
46222;SDS011;31943;51.410;7.564;2024-03-07T10:14:48;23.70;;;18.20;;
46222;SDS011;31943;51.410;7.564;2024-03-07T10:17:15;22.77;;;17.77;;
46222;SDS011;31943;51.410;7.564;2024-03-07T10:19:43;25.05;;;19.00;;
46222;SDS011;31943;51.410;7.564;2024-03-07T10:22:11;22.77;;;17.33;;
46222;SDS011;31943;51.410;7.564;2024-03-07T10:24:37;25.63;;;18.05;;
46222;SDS011;31943;51.410;7.564;2024-03-07T10:27:04;29.52;;;19.27;;
46222;SDS011;31943;51.410;7.564;2024-03-07T10:29:30;23.52;;;17.08;;
46222;SDS011;31943;51.410;7.564;2024-03-07T10:31:58;23.60;;;17.73;;
46222;SDS011;31943;51.410;7.564;2024-03-07T10:34:24;23.30;;;18.25;;
46222;SDS011;31943;51.410;7.564;2024-03-07T10:36:51;23.90;;;18.65;;
46222;SDS011;31943;51.410;7.564;2024-03-07T10:39:18;24.27;;;17.67;;
46222;SDS011;31943;51.410;7.564;2024-03-07T10:41:45;23.20;;;17.58;;
46222;SDS011;31943;51.410;7.564;2024-03-07T10:44:13;22.73;;;17.10;;
46222;SDS011;31943;51.410;7.564;2024-03-07T10:46:44;23.23;;;17.60;;
46222;SDS011;31943;51.410;7.564;2024-03-07T10:49:15;22.30;;;16.48;;
46222;SDS011;31943;51.410;7.564;2024-03-07T10:51:44;23.35;;;17.23;;
46222;SDS011;31943;51.410;7.564;2024-03-07T10:54:20;18.70;;;15.38;;
46222;SDS011;31943;51.410;7.564;2024-03-07T10:56:54;21.70;;;16.17;;
46222;SDS011;31943;51.410;7.564;2024-03-07T10:59:29;20.95;;;15.50;;
46222;SDS011;31943;51.410;7.564;2024-03-07T11:01:57;21.63;;;17.27;;
46222;SDS011;31943;51.410;7.564;2024-03-07T11:04:25;20.35;;;15.70;;
46222;SDS011;31943;51.410;7.564;2024-03-07T11:06:50;21.25;;;16.88;;
46222;SDS011;31943;51.410;7.564;2024-03-07T11:09:16;19.58;;;15.75;;
46222;SDS011;31943;51.410;7.564;2024-03-07T11:11:50;20.58;;;15.95;;
46222;SDS011;31943;51.410;7.564;2024-03-07T11:14:17;22.40;;;16.45;;
46222;SDS011;31943;51.410;7.564;2024-03-07T11:16:44;21.70;;;15.90;;
46222;SDS011;31943;51.410;7.564;2024-03-07T11:19:17;22.20;;;16.75;;
46222;SDS011;31943;51.410;7.564;2024-03-07T11:21:47;19.92;;;16.02;;
46222;SDS011;31943;51.410;7.564;2024-03-07T11:24:23;24.83;;;16.85;;
46222;SDS011;31943;51.410;7.564;2024-03-07T11:26:50;23.65;;;16.63;;
46222;SDS011;31943;51.410;7.564;2024-03-07T11:32:06;22.30;;;16.67;;
46222;SDS011;31943;51.410;7.564;2024-03-07T11:34:32;19.38;;;16.38;;
46222;SDS011;31943;51.410;7.564;2024-03-07T11:37:03;22.63;;;17.67;;
46222;SDS011;31943;51.410;7.564;2024-03-07T11:39:42;21.55;;;16.70;;
46222;SDS011;31943;51.410;7.564;2024-03-07T11:42:09;19.73;;;16.40;;
46222;SDS011;31943;51.410;7.564;2024-03-07T11:44:34;21.00;;;16.73;;
46222;SDS011;31943;51.410;7.564;2024-03-07T11:47:00;21.40;;;17.05;;
46222;SDS011;31943;51.410;7.564;2024-03-07T11:49:27;19.67;;;16.23;;
46222;SDS011;31943;51.410;7.564;2024-03-07T11:51:52;21.60;;;17.23;;
46222;SDS011;31943;51.410;7.564;2024-03-07T11:54:18;22.33;;;16.23;;
46222;SDS011;31943;51.410;7.564;2024-03-07T11:56:45;21.95;;;17.05;;
46222;SDS011;31943;51.410;7.564;2024-03-07T11:59:11;22.77;;;17.88;;
46222;SDS011;31943;51.410;7.564;2024-03-07T12:01:37;24.70;;;16.98;;
46222;SDS011;31943;51.410;7.564;2024-03-07T12:04:02;21.10;;;17.60;;
46222;SDS011;31943;51.410;7.564;2024-03-07T12:06:28;20.25;;;17.05;;
46222;SDS011;31943;51.410;7.564;2024-03-07T12:08:53;23.55;;;17.60;;
46222;SDS011;31943;51.410;7.564;2024-03-07T12:11:19;19.42;;;16.40;;
46222;SDS011;31943;51.410;7.564;2024-03-07T12:13:47;20.15;;;17.05;;
46222;SDS011;31943;51.410;7.564;2024-03-07T12:16:17;19.60;;;15.18;;
46222;SDS011;31943;51.410;7.564;2024-03-07T12:18:43;20.02;;;15.57;;
46222;SDS011;31943;51.410;7.564;2024-03-07T12:21:09;18.73;;;15.55;;
46222;SDS011;31943;51.410;7.564;2024-03-07T12:23:35;21.90;;;14.73;;
46222;SDS011;31943;51.410;7.564;2024-03-07T12:26:05;15.82;;;13.73;;
46222;SDS011;31943;51.410;7.564;2024-03-07T12:28:30;16.30;;;13.27;;
46222;SDS011;31943;51.410;7.564;2024-03-07T12:30:58;15.13;;;13.10;;
46222;SDS011;31943;51.410;7.564;2024-03-07T12:33:25;16.15;;;13.73;;
46222;SDS011;31943;51.410;7.564;2024-03-07T12:35:51;14.75;;;12.93;;
46222;SDS011;31943;51.410;7.564;2024-03-07T12:38:19;15.85;;;11.90;;
46222;SDS011;31943;51.410;7.564;2024-03-07T12:40:45;14.35;;;11.88;;
46222;SDS011;31943;51.410;7.564;2024-03-07T12:43:14;17.02;;;13.68;;
46222;SDS011;31943;51.410;7.564;2024-03-07T12:45:43;13.85;;;11.15;;
46222;SDS011;31943;51.410;7.564;2024-03-07T12:48:12;14.80;;;11.30;;
46222;SDS011;31943;51.410;7.564;2024-03-07T12:50:38;13.25;;;11.18;;
46222;SDS011;31943;51.410;7.564;2024-03-07T12:53:03;13.63;;;11.70;;
46222;SDS011;31943;51.410;7.564;2024-03-07T12:55:29;14.90;;;11.82;;
46222;SDS011;31943;51.410;7.564;2024-03-07T12:57:55;15.50;;;12.50;;
46222;SDS011;31943;51.410;7.564;2024-03-07T13:00:21;13.32;;;11.40;;
46222;SDS011;31943;51.410;7.564;2024-03-07T13:02:48;9.68;;;7.57;;
46222;SDS011;31943;51.410;7.564;2024-03-07T13:05:15;9.40;;;7.72;;
46222;SDS011;31943;51.410;7.564;2024-03-07T13:07:41;8.70;;;7.53;;
46222;SDS011;31943;51.410;7.564;2024-03-07T13:10:08;9.02;;;6.90;;
46222;SDS011;31943;51.410;7.564;2024-03-07T13:12:34;10.40;;;8.45;;
46222;SDS011;31943;51.410;7.564;2024-03-07T13:15:00;10.23;;;7.60;;
46222;SDS011;31943;51.410;7.564;2024-03-07T13:17:26;9.45;;;8.15;;
46222;SDS011;31943;51.410;7.564;2024-03-07T13:19:51;11.68;;;9.38;;
46222;SDS011;31943;51.410;7.564;2024-03-07T13:22:19;11.80;;;9.38;;
46222;SDS011;31943;51.410;7.564;2024-03-07T13:24:44;14.15;;;11.18;;
46222;SDS011;31943;51.410;7.564;2024-03-07T13:27:10;16.27;;;10.50;;
46222;SDS011;31943;51.410;7.564;2024-03-07T13:29:36;12.77;;;10.38;;
46222;SDS011;31943;51.410;7.564;2024-03-07T13:32:02;11.93;;;10.48;;
46222;SDS011;31943;51.410;7.564;2024-03-07T13:34:30;13.57;;;10.35;;
46222;SDS011;31943;51.410;7.564;2024-03-07T13:36:56;13.20;;;10.45;;
46222;SDS011;31943;51.410;7.564;2024-03-07T13:39:25;11.30;;;9.77;;
46222;SDS011;31943;51.410;7.564;2024-03-07T13:41:52;13.85;;;10.40;;
46222;SDS011;31943;51.410;7.564;2024-03-07T13:44:17;13.93;;;10.38;;
46222;SDS011;31943;51.410;7.564;2024-03-07T13:46:44;13.80;;;10.38;;
46222;SDS011;31943;51.410;7.564;2024-03-07T13:49:09;12.00;;;9.48;;
46222;SDS011;31943;51.410;7.564;2024-03-07T13:51:35;10.77;;;8.65;;
46222;SDS011;31943;51.410;7.564;2024-03-07T13:54:01;11.40;;;9.32;;
46222;SDS011;31943;51.410;7.564;2024-03-07T13:56:34;11.52;;;9.02;;
46222;SDS011;31943;51.410;7.564;2024-03-07T14:02:05;11.30;;;8.82;;
46222;SDS011;31943;51.410;7.564;2024-03-07T14:08:00;13.27;;;9.45;;
46222;SDS011;31943;51.410;7.564;2024-03-07T14:11:01;11.77;;;9.18;;
46222;SDS011;31943;51.410;7.564;2024-03-07T14:13:48;11.05;;;8.75;;
46222;SDS011;31943;51.410;7.564;2024-03-07T14:16:47;11.85;;;8.80;;
46222;SDS011;31943;51.410;7.564;2024-03-07T14:19:44;12.02;;;8.98;;
46222;SDS011;31943;51.410;7.564;2024-03-07T14:22:58;12.93;;;9.35;;
46222;SDS011;31943;51.410;7.564;2024-03-07T14:25:39;14.40;;;9.30;;
46222;SDS011;31943;51.410;7.564;2024-03-07T14:31:19;11.88;;;9.65;;
46222;SDS011;31943;51.410;7.564;2024-03-07T14:33:48;15.77;;;10.73;;